Aérodrome :
LOGIN :

S'inscrire | Disclaimer

   EN    FR    IT 

 










Légende :    VFR   VFR Marginal   IFR   IFR Intensif   IFR Très Intensif
Visi : 
Plafond : 
>= 8 km
>= 3000ft
5 à 8 km
1000 à 3000 ft
1500m à 5 km
500 à 1000 ft
800 à 1500m
200 à 500 ft
< 800m
< 200 ft
Symboles :   Orages  Brouillard  Fortes neiges  Fortes précipitations  Vent > 20 kt
SIGMETs :   Divers  Orages  Givrage  Turbulence  Onde Orograph.  Cendres Volcan.







- Altitude de l'aérodrome : 26 ft
- Code IATA : SYY
- Voir les cartes d'approche


EGPO - Stornoway

DERNIER METAR :
  • 220850Z 18021KT 9999 VCSH FEW012 BKN032 06/02 Q1018

METARs EXPIRÉS :
  • 220820Z 17019KT 9999 VCSH FEW011 BKN038 06/02 Q1019
  • 220750Z 17019KT 9999 FEW018 BKN038 06/03 Q1019
  • 220720Z 18019KT 9999 FEW018 BKN040 06/03 Q1019
  • 220650Z 18019KT 9999 FEW018 SCT025 BKN040 06/02 Q1019
  • 220620Z 17019KT 9999 FEW018 BKN022 BKN045 06/02 Q1019

TAF TAF EGPO
Valide du 22 à 09h jusqu'au 22 à 18h UTC


220800Z 2209/2218 18020G30KT 9999 FEW015 SCT040
ATIS : +44 1851 707 444
Pas de NOTAMs connus pour ce terrain.



MET'MAP, la Météo Aéronautique d'un coup d'oeil ! - Copyright ORBIFLY Décembre 2007 - Disclaimer

ORBIFLY MET'MAP TEAM :

Programmation & Développement : Alexandra Zaïnal
Conception & Développement : Baudouin d'Aumeries
Co-Programmation & Développement : Marc-Olivier Méhu
Soutien technique & logistique : Manuel Goepfert

Contact : metmap@orbifly.com




SOURCES & CREDITS :

   NOAA